createdAt,value
2022-09-10T00:01:59.743Z,13.00
2022-09-10T00:04:27.961Z,13.10
2022-09-10T00:06:55.642Z,13.10
2022-09-10T00:09:23.075Z,13.10
2022-09-10T00:11:50.065Z,13.00
2022-09-10T00:14:20.330Z,13.00
2022-09-10T00:16:47.825Z,13.00
2022-09-10T00:19:15.606Z,13.20
2022-09-10T00:21:44.355Z,13.20
2022-09-10T00:24:13.421Z,13.30
2022-09-10T00:26:40.374Z,13.20
2022-09-10T00:29:10.679Z,13.30
2022-09-10T00:31:38.371Z,13.20
2022-09-10T00:34:06.090Z,13.30
2022-09-10T00:36:36.672Z,13.30
2022-09-10T00:39:06.456Z,13.30
2022-09-10T00:41:34.664Z,13.10
2022-09-10T00:44:22.194Z,13.00
2022-09-10T00:46:50.419Z,12.90
2022-09-10T00:49:26.921Z,13.10
2022-09-10T00:51:54.192Z,13.10
2022-09-10T00:54:25.123Z,13.10
2022-09-10T00:56:55.468Z,13.10
2022-09-10T00:59:26.155Z,13.10
2022-09-10T01:01:53.291Z,13.00
2022-09-10T01:04:20.139Z,12.90
2022-09-10T01:06:51.662Z,12.90
2022-09-10T01:09:19.493Z,12.90
2022-09-10T01:12:04.460Z,12.90
2022-09-10T01:15:03.477Z,12.90
2022-09-10T01:18:11.687Z,13.00
2022-09-10T01:21:00.654Z,13.10
2022-09-10T01:23:44.660Z,13.10
2022-09-10T01:26:20.289Z,13.10
2022-09-10T01:29:02.204Z,13.20
2022-09-10T01:32:01.310Z,13.20
2022-09-10T01:34:32.762Z,13.10
2022-09-10T01:37:07.879Z,13.10
2022-09-10T01:39:37.230Z,13.20
2022-09-10T01:42:04.746Z,13.20
2022-09-10T01:44:48.393Z,13.20
2022-09-10T01:47:56.958Z,13.20
2022-09-10T01:50:41.178Z,13.10
2022-09-10T01:53:30.931Z,13.20
2022-09-10T01:56:35.619Z,13.20
2022-09-10T01:59:54.313Z,13.30
2022-09-10T02:02:29.046Z,13.20
2022-09-10T02:04:57.558Z,13.20
2022-09-10T02:07:26.866Z,13.20
2022-09-10T02:09:54.938Z,13.10
2022-09-10T02:12:23.830Z,13.10
2022-09-10T02:15:18.795Z,13.10
2022-09-10T02:17:56.090Z,13.30
2022-09-10T02:20:23.411Z,13.30
2022-09-10T02:22:55.767Z,13.30
2022-09-10T02:25:26.923Z,13.30
2022-09-10T02:27:57.256Z,13.20
2022-09-10T02:30:24.763Z,13.20
2022-09-10T02:32:51.903Z,13.30
2022-09-10T02:35:19.203Z,13.30
2022-09-10T02:37:49.839Z,13.30
2022-09-10T02:40:19.478Z,13.30
2022-09-10T02:42:46.903Z,13.30
2022-09-10T02:45:18.130Z,13.30
2022-09-10T02:47:44.839Z,13.00
2022-09-10T02:50:11.637Z,13.00
2022-09-10T02:52:39.225Z,13.00
2022-09-10T02:55:08.466Z,13.00
2022-09-10T02:57:35.747Z,12.90
2022-09-10T03:00:03.099Z,13.00
2022-09-10T03:02:29.925Z,12.90
2022-09-10T03:04:56.682Z,13.00
2022-09-10T03:07:24.813Z,13.00
2022-09-10T03:09:51.561Z,13.10
2022-09-10T03:12:18.678Z,13.10
2022-09-10T03:14:47.296Z,13.10
2022-09-10T03:17:14.227Z,13.10
2022-09-10T03:19:40.906Z,13.10
2022-09-10T03:22:07.655Z,13.00
2022-09-10T03:24:34.381Z,13.00
2022-09-10T03:27:01.439Z,13.00
2022-09-10T03:29:30.108Z,13.00
2022-09-10T03:31:58.383Z,13.00
2022-09-10T03:34:25.299Z,13.00
2022-09-10T03:36:52.057Z,13.00
2022-09-10T03:39:19.206Z,12.90
2022-09-10T03:41:46.639Z,12.90
2022-09-10T03:44:14.728Z,12.80
2022-09-10T03:46:41.443Z,12.80
2022-09-10T03:49:08.683Z,12.60
2022-09-10T03:51:35.511Z,12.60
2022-09-10T03:54:03.158Z,12.60
2022-09-10T03:56:32.331Z,12.50
2022-09-10T03:58:59.017Z,12.50
2022-09-10T04:01:28.069Z,12.50
2022-09-10T04:03:56.756Z,12.40
2022-09-10T04:06:25.652Z,12.40
2022-09-10T04:08:52.809Z,12.30
2022-09-10T04:11:23.935Z,12.30
2022-09-10T04:13:51.347Z,12.40
2022-09-10T04:16:18.794Z,12.40
2022-09-10T04:18:45.858Z,12.50
2022-09-10T04:21:15.747Z,12.50
2022-09-10T04:23:43.356Z,12.50
2022-09-10T04:26:20.394Z,12.60
2022-09-10T04:28:49.550Z,12.60
2022-09-10T04:31:17.391Z,12.60
2022-09-10T04:33:44.989Z,12.60
2022-09-10T04:36:12.895Z,12.60
2022-09-10T04:38:42.083Z,12.60
2022-09-10T04:41:10.839Z,12.70
2022-09-10T04:43:38.403Z,12.70
2022-09-10T04:46:06.394Z,12.70
2022-09-10T04:48:35.099Z,12.70
2022-09-10T04:51:16.123Z,12.70
2022-09-10T04:53:46.161Z,12.80
2022-09-10T04:56:13.848Z,12.80
2022-09-10T04:58:41.897Z,12.90
2022-09-10T05:01:09.939Z,12.80
2022-09-10T05:03:37.440Z,12.80
2022-09-10T05:06:06.239Z,12.80
2022-09-10T05:08:33.609Z,12.70
2022-09-10T05:11:02.921Z,12.70
2022-09-10T05:13:31.720Z,12.50
2022-09-10T05:15:59.975Z,12.40
2022-09-10T05:18:26.819Z,12.50
2022-09-10T05:20:54.290Z,12.50
2022-09-10T05:23:21.289Z,12.60
2022-09-10T05:25:49.598Z,12.60
2022-09-10T05:28:17.714Z,12.70
2022-09-10T05:30:49.551Z,12.80
2022-09-10T05:33:20.213Z,12.80
2022-09-10T05:35:51.521Z,12.80
2022-09-10T05:38:18.802Z,12.80
2022-09-10T05:40:45.707Z,12.70
2022-09-10T05:43:13.248Z,12.60
2022-09-10T05:45:40.547Z,12.70
2022-09-10T05:48:07.835Z,12.80
2022-09-10T05:50:34.658Z,12.70
2022-09-10T05:53:01.641Z,12.80
2022-09-10T05:55:31.264Z,12.70
2022-09-10T05:57:58.683Z,12.80
2022-09-10T06:00:26.235Z,12.90
2022-09-10T06:02:58.672Z,13.00
2022-09-10T06:05:33.293Z,13.00
2022-09-10T06:08:06.533Z,13.00
2022-09-10T06:10:37.299Z,13.00
2022-09-10T06:13:04.234Z,12.90
2022-09-10T06:15:36.186Z,12.80
2022-09-10T06:18:04.079Z,12.80
2022-09-10T06:20:32.106Z,12.70
2022-09-10T06:22:59.548Z,12.80
2022-09-10T06:25:26.333Z,12.80
2022-09-10T06:27:53.515Z,12.80
2022-09-10T06:30:20.713Z,12.80
2022-09-10T06:32:48.173Z,12.90
2022-09-10T06:35:15.582Z,12.90
2022-09-10T06:37:43.324Z,13.00
2022-09-10T06:40:12.165Z,13.10
2022-09-10T06:42:40.847Z,13.40
2022-09-10T06:45:13.414Z,13.60
2022-09-10T06:50:59.178Z,14.00
2022-09-10T06:53:33.621Z,14.20
2022-09-10T06:56:03.104Z,14.20
2022-09-10T06:58:36.415Z,14.20
2022-09-10T07:01:14.438Z,14.40
2022-09-10T07:03:45.632Z,14.50
2022-09-10T07:06:17.853Z,14.50
2022-09-10T07:08:47.748Z,14.50
2022-09-10T07:11:16.307Z,14.40
2022-09-10T07:13:44.353Z,14.40
2022-09-10T07:16:11.711Z,14.50
2022-09-10T07:18:38.919Z,14.40
2022-09-10T07:21:11.752Z,14.30
2022-09-10T07:23:44.070Z,14.30
2022-09-10T07:26:14.783Z,14.30
2022-09-10T07:28:46.538Z,14.50
2022-09-10T07:31:22.752Z,14.50
2022-09-10T07:33:50.837Z,14.60
2022-09-10T07:36:18.587Z,14.60
2022-09-10T07:38:48.114Z,14.60
2022-09-10T07:41:15.544Z,14.60
2022-09-10T07:43:44.424Z,14.50
2022-09-10T07:46:19.476Z,14.50
2022-09-10T07:48:48.814Z,14.40
2022-09-10T07:51:19.400Z,14.40
2022-09-10T07:53:51.399Z,14.30
2022-09-10T07:56:19.643Z,14.40
2022-09-10T07:58:47.169Z,14.30
2022-09-10T08:01:14.668Z,14.30
2022-09-10T08:03:43.096Z,14.30
2022-09-10T08:06:12.682Z,14.30
2022-09-10T08:08:40.553Z,14.40
2022-09-10T08:11:16.561Z,14.50
2022-09-10T08:13:47.390Z,14.60
2022-09-10T08:16:20.669Z,14.50
2022-09-10T08:18:48.647Z,14.30
2022-09-10T08:21:18.056Z,14.40
2022-09-10T08:23:51.836Z,14.40
2022-09-10T08:26:21.015Z,14.60
2022-09-10T08:28:47.851Z,14.60
2022-09-10T08:31:16.692Z,14.50
2022-09-10T08:33:51.786Z,14.60
2022-09-10T08:36:19.523Z,14.70
2022-09-10T08:38:46.698Z,14.80
2022-09-10T08:41:23.265Z,14.90
2022-09-10T08:44:02.883Z,15.00
2022-09-10T08:46:37.265Z,15.10
2022-09-10T08:49:42.050Z,15.20
2022-09-10T08:52:29.718Z,15.30
2022-09-10T08:55:18.462Z,15.10
2022-09-10T08:57:57.519Z,15.10
2022-09-10T09:00:26.913Z,15.10
2022-09-10T09:03:02.350Z,15.10
2022-09-10T09:05:46.199Z,15.20
2022-09-10T09:08:19.033Z,15.20
2022-09-10T09:10:59.948Z,15.20
2022-09-10T09:13:57.367Z,15.30
2022-09-10T09:16:37.326Z,15.30
2022-09-10T09:19:18.169Z,15.30
2022-09-10T09:21:59.615Z,15.30
2022-09-10T09:24:59.398Z,15.10
2022-09-10T09:27:36.411Z,15.20
2022-09-10T09:30:23.087Z,15.20
2022-09-10T09:32:51.508Z,15.40
2022-09-10T09:35:37.032Z,15.60
2022-09-10T09:38:09.110Z,15.70
2022-09-10T09:40:51.562Z,15.70
2022-09-10T09:43:42.646Z,15.80
2022-09-10T09:46:19.587Z,15.90
2022-09-10T09:48:54.153Z,15.80
2022-09-10T09:51:25.242Z,15.90
2022-09-10T09:54:25.728Z,15.80
2022-09-10T09:56:49.872Z,15.90
2022-09-10T09:59:27.464Z,15.90
2022-09-10T10:01:59.327Z,16.00
2022-09-10T10:04:30.973Z,16.10
2022-09-10T10:06:59.906Z,16.10
2022-09-10T10:09:32.578Z,16.40
2022-09-10T10:12:04.663Z,16.80
2022-09-10T10:14:31.344Z,16.90
2022-09-10T10:17:01.001Z,17.20
2022-09-10T10:19:38.494Z,17.50
2022-09-10T10:22:26.177Z,17.50
2022-09-10T10:24:54.437Z,17.60
2022-09-10T10:27:41.680Z,17.50
2022-09-10T10:30:18.219Z,17.20
2022-09-10T10:32:57.454Z,17.10
2022-09-10T10:35:32.879Z,17.20
2022-09-10T10:38:25.219Z,17.50
2022-09-10T10:41:09.807Z,17.60
2022-09-10T10:44:15.647Z,17.10
2022-09-10T10:46:53.413Z,16.90
2022-09-10T10:49:50.521Z,16.60
2022-09-10T10:52:31.427Z,16.60
2022-09-10T10:55:23.504Z,16.80
2022-09-10T10:57:55.744Z,16.80
2022-09-10T11:00:22.718Z,17.00
2022-09-10T11:02:54.532Z,17.00
2022-09-10T11:05:31.574Z,17.10
2022-09-10T11:08:28.782Z,17.30
2022-09-10T11:11:16.540Z,17.50
2022-09-10T11:14:12.528Z,17.70
2022-09-10T11:16:46.726Z,17.60
2022-09-10T11:20:05.121Z,17.50
2022-09-10T11:23:07.050Z,17.40
2022-09-10T11:25:40.292Z,17.20
2022-09-10T11:28:15.440Z,16.90
2022-09-10T11:30:48.270Z,17.00
2022-09-10T11:33:24.921Z,17.30
2022-09-10T11:36:03.690Z,17.40
2022-09-10T11:38:42.310Z,17.40
2022-09-10T11:41:19.113Z,17.50
2022-09-10T11:44:12.599Z,17.50
2022-09-10T11:46:56.472Z,17.80
2022-09-10T11:49:47.691Z,17.70
2022-09-10T11:52:16.292Z,17.60
2022-09-10T11:54:46.591Z,17.40
2022-09-10T11:57:24.952Z,17.70
2022-09-10T12:00:17.041Z,17.80
2022-09-10T12:02:49.552Z,17.90
2022-09-10T12:05:38.083Z,18.00
2022-09-10T12:08:38.329Z,17.80
2022-09-10T12:11:18.882Z,17.70
2022-09-10T12:13:47.479Z,18.10
2022-09-10T12:16:30.339Z,18.40
2022-09-10T12:18:59.067Z,18.10
2022-09-10T12:21:37.695Z,18.20
2022-09-10T12:24:21.893Z,18.20
2022-09-10T12:26:49.273Z,18.50
2022-09-10T12:29:35.158Z,18.90
2022-09-10T12:32:08.247Z,19.00
2022-09-10T12:34:36.758Z,18.70
2022-09-10T12:37:03.834Z,19.10
2022-09-10T12:39:31.069Z,19.20
2022-09-10T12:41:59.671Z,19.70
2022-09-10T12:44:36.042Z,20.20
2022-09-10T12:47:18.091Z,20.20
2022-09-10T12:49:57.340Z,19.60
2022-09-10T12:52:32.018Z,19.60
2022-09-10T12:55:44.014Z,19.60
2022-09-10T12:58:29.258Z,19.80
2022-09-10T13:00:56.167Z,19.90
2022-09-10T13:03:27.864Z,20.00
2022-09-10T13:05:57.738Z,19.80
2022-09-10T13:08:44.854Z,19.90
2022-09-10T13:11:24.413Z,19.90
2022-09-10T13:13:54.565Z,20.00
2022-09-10T13:16:27.406Z,20.30
2022-09-10T13:19:17.559Z,19.90
2022-09-10T13:21:44.699Z,19.40
2022-09-10T13:24:34.126Z,19.10
2022-09-10T13:27:13.142Z,18.90
2022-09-10T13:29:43.370Z,18.80
2022-09-10T13:32:31.827Z,18.50
2022-09-10T13:35:26.967Z,18.30
2022-09-10T13:37:53.701Z,18.00
2022-09-10T13:40:49.437Z,17.90
2022-09-10T13:43:41.750Z,17.90
2022-09-10T13:46:35.262Z,17.80
2022-09-10T13:49:13.623Z,17.80
2022-09-10T13:51:54.548Z,17.70
2022-09-10T13:54:45.391Z,17.70
2022-09-10T13:57:13.301Z,17.60
2022-09-10T13:59:42.032Z,17.50
2022-09-10T14:02:09.416Z,17.50
2022-09-10T14:04:44.914Z,17.40
2022-09-10T14:07:20.680Z,17.60
2022-09-10T14:10:00.234Z,17.60
2022-09-10T14:12:29.275Z,17.60
2022-09-10T14:14:59.507Z,17.50
2022-09-10T14:17:32.208Z,17.60
2022-09-10T14:20:02.302Z,17.60
2022-09-10T14:22:31.813Z,17.50
2022-09-10T14:25:01.630Z,17.30
2022-09-10T14:27:34.799Z,17.60
2022-09-10T14:30:23.550Z,18.40
2022-09-10T14:32:52.053Z,18.70
2022-09-10T14:35:54.496Z,18.60
2022-09-10T14:38:39.465Z,18.70
2022-09-10T14:41:21.735Z,18.70
2022-09-10T14:43:49.739Z,18.70
2022-09-10T14:47:10.768Z,18.80
2022-09-10T14:49:39.488Z,18.60
2022-09-10T14:52:07.812Z,18.40
2022-09-10T14:54:35.173Z,18.40
2022-09-10T14:57:10.046Z,18.30
2022-09-10T14:59:39.824Z,18.00
2022-09-10T15:02:15.509Z,17.90
2022-09-10T15:04:42.294Z,18.00
2022-09-10T15:07:10.325Z,18.00
2022-09-10T15:09:37.222Z,18.00
2022-09-10T15:12:24.821Z,18.10
2022-09-10T15:14:51.851Z,17.90
2022-09-10T15:17:19.096Z,17.60
2022-09-10T15:19:49.914Z,17.60
2022-09-10T15:22:27.733Z,17.60
2022-09-10T15:25:11.713Z,17.70
2022-09-10T15:27:38.606Z,17.50
2022-09-10T15:30:26.361Z,17.40
2022-09-10T15:32:54.396Z,17.30
2022-09-10T15:35:23.271Z,17.20
2022-09-10T15:37:51.234Z,17.10
2022-09-10T15:40:18.087Z,16.90
2022-09-10T15:42:45.121Z,16.80
2022-09-10T15:45:12.329Z,16.70
2022-09-10T15:47:41.973Z,16.60
2022-09-10T15:50:11.354Z,16.60
2022-09-10T15:52:38.715Z,16.60
2022-09-10T15:55:07.037Z,16.60
2022-09-10T15:57:35.864Z,16.60
2022-09-10T16:00:06.811Z,16.60
2022-09-10T16:02:34.147Z,16.60
2022-09-10T16:05:03.838Z,16.60
2022-09-10T16:07:30.552Z,16.60
2022-09-10T16:09:58.747Z,16.40
2022-09-10T16:12:28.680Z,16.30
2022-09-10T16:14:55.799Z,16.30
2022-09-10T16:17:22.751Z,16.20
2022-09-10T16:19:51.280Z,16.10
2022-09-10T16:22:20.720Z,16.00
2022-09-10T16:24:47.628Z,15.90
2022-09-10T16:27:16.259Z,15.90
2022-09-10T16:29:43.627Z,15.90
2022-09-10T16:32:11.143Z,16.00
2022-09-10T16:34:38.638Z,16.10
2022-09-10T16:37:06.134Z,16.10
2022-09-10T16:39:32.826Z,16.00
2022-09-10T16:41:59.595Z,15.90
2022-09-10T16:44:26.967Z,15.90
2022-09-10T16:46:53.930Z,15.80
2022-09-10T16:49:20.751Z,15.80
2022-09-10T16:51:49.132Z,15.70
2022-09-10T16:54:19.510Z,15.70
2022-09-10T16:56:47.939Z,15.70
2022-09-10T16:59:22.901Z,15.80
2022-09-10T17:01:51.914Z,15.80
2022-09-10T17:04:29.155Z,15.80
2022-09-10T17:06:57.385Z,15.80
2022-09-10T17:09:24.987Z,15.70
2022-09-10T17:11:52.020Z,15.60
2022-09-10T17:14:19.420Z,15.60
2022-09-10T17:16:47.919Z,15.60
2022-09-10T17:19:18.327Z,15.60
2022-09-10T17:21:53.140Z,15.60
2022-09-10T17:24:22.592Z,15.50
2022-09-10T17:26:50.342Z,15.50
2022-09-10T17:29:20.052Z,15.40
2022-09-10T17:31:47.546Z,15.40
2022-09-10T17:34:16.155Z,15.50
2022-09-10T17:36:45.317Z,15.40
2022-09-10T17:39:13.314Z,15.30
2022-09-10T17:41:40.798Z,15.30
2022-09-10T17:44:08.094Z,15.10
2022-09-10T17:46:36.187Z,15.00
2022-09-10T17:49:04.576Z,15.00
2022-09-10T17:51:33.812Z,14.80
2022-09-10T17:54:03.025Z,14.70
2022-09-10T17:56:30.703Z,14.30
2022-09-10T17:59:02.651Z,14.30
2022-09-10T18:01:32.011Z,14.20
2022-09-10T18:03:59.290Z,14.10
2022-09-10T18:06:28.901Z,14.00
2022-09-10T18:09:00.932Z,13.90
2022-09-10T18:11:30.982Z,13.80
2022-09-10T18:13:59.601Z,13.80
2022-09-10T18:16:30.933Z,13.60
2022-09-10T18:19:04.377Z,13.50
2022-09-10T18:21:36.590Z,13.40
2022-09-10T18:24:10.491Z,13.30
2022-09-10T18:26:41.126Z,13.30
2022-09-10T18:29:10.396Z,13.20
2022-09-10T18:31:39.763Z,13.20
2022-09-10T18:34:09.467Z,13.20
2022-09-10T18:36:36.650Z,13.30
2022-09-10T18:39:04.998Z,13.30
2022-09-10T18:41:33.711Z,13.30
2022-09-10T18:44:04.100Z,13.40
2022-09-10T18:46:32.984Z,13.30
2022-09-10T18:49:00.871Z,13.40
2022-09-10T18:51:29.685Z,13.30
2022-09-10T18:53:59.035Z,13.30
2022-09-10T18:56:29.859Z,13.30
2022-09-10T18:59:03.113Z,13.30
2022-09-10T19:01:30.957Z,13.30
2022-09-10T19:03:58.221Z,13.20
2022-09-10T19:06:27.292Z,13.20
2022-09-10T19:08:59.761Z,13.20
2022-09-10T19:11:32.914Z,13.30
2022-09-10T19:14:01.730Z,13.30
2022-09-10T19:16:30.565Z,13.30
2022-09-10T19:19:02.841Z,13.30
2022-09-10T19:21:32.525Z,13.40
2022-09-10T19:24:00.928Z,13.30
2022-09-10T19:26:31.961Z,13.20
2022-09-10T19:29:01.153Z,13.20
2022-09-10T19:31:30.349Z,13.20
2022-09-10T19:33:59.208Z,13.20
2022-09-10T19:36:31.625Z,13.20
2022-09-10T19:38:59.590Z,13.10
2022-09-10T19:41:27.189Z,13.10
2022-09-10T19:43:54.917Z,13.10
2022-09-10T19:46:24.938Z,13.00
2022-09-10T19:48:53.184Z,13.10
2022-09-10T19:51:20.653Z,13.00
2022-09-10T19:53:49.458Z,13.00
2022-09-10T19:56:20.646Z,13.00
2022-09-10T19:58:52.456Z,12.90
2022-09-10T20:01:39.874Z,13.00
2022-09-10T20:04:08.848Z,12.90
2022-09-10T20:06:36.495Z,12.90
2022-09-10T20:09:04.898Z,12.90
2022-09-10T20:11:33.262Z,12.90
2022-09-10T20:14:02.583Z,12.90
2022-09-10T20:16:29.890Z,12.80
2022-09-10T20:18:56.679Z,12.90
2022-09-10T20:21:26.892Z,12.90
2022-09-10T20:23:56.177Z,12.90
2022-09-10T20:26:43.682Z,12.90
2022-09-10T20:29:13.001Z,12.90
2022-09-10T20:31:41.114Z,12.90
2022-09-10T20:34:16.673Z,12.90
2022-09-10T20:36:43.861Z,12.90
2022-09-10T20:39:13.666Z,12.70
2022-09-10T20:41:40.739Z,12.70
2022-09-10T20:44:08.266Z,12.70
2022-09-10T20:46:35.066Z,12.60
2022-09-10T20:49:04.866Z,12.60
2022-09-10T20:51:36.228Z,12.60
2022-09-10T20:54:04.222Z,12.50
2022-09-10T20:56:31.079Z,12.50
2022-09-10T20:58:58.469Z,12.50
2022-09-10T21:01:27.283Z,12.50
2022-09-10T21:03:57.947Z,12.50
2022-09-10T21:06:27.109Z,12.60
2022-09-10T21:08:56.929Z,12.50
2022-09-10T21:11:25.711Z,12.60
2022-09-10T21:13:57.535Z,12.60
2022-09-10T21:16:29.758Z,12.60
2022-09-10T21:19:00.777Z,12.70
2022-09-10T21:21:30.408Z,12.60
2022-09-10T21:24:00.237Z,12.60
2022-09-10T21:26:29.721Z,12.60
2022-09-10T21:28:59.748Z,12.70
2022-09-10T21:31:28.188Z,12.60
2022-09-10T21:34:00.609Z,12.60
2022-09-10T21:36:29.870Z,12.60
2022-09-10T21:38:59.491Z,12.70
2022-09-10T21:41:34.155Z,12.80
2022-09-10T21:44:02.944Z,12.80
2022-09-10T21:46:30.750Z,12.90
2022-09-10T21:48:58.173Z,13.00
2022-09-10T21:51:25.539Z,13.00
2022-09-10T21:53:56.627Z,13.10
2022-09-10T21:56:26.074Z,13.10
2022-09-10T21:58:53.856Z,13.00
2022-09-10T22:01:23.550Z,13.10
2022-09-10T22:03:56.110Z,13.00
2022-09-10T22:06:25.837Z,12.90
2022-09-10T22:08:57.665Z,13.00
2022-09-10T22:11:31.888Z,13.00
2022-09-10T22:14:01.376Z,13.00
2022-09-10T22:16:31.221Z,13.10
2022-09-10T22:19:04.916Z,13.10
2022-09-10T22:21:32.970Z,13.10
2022-09-10T22:24:00.006Z,13.00
2022-09-10T22:26:28.232Z,13.00
2022-09-10T22:28:58.092Z,12.90
2022-09-10T22:31:27.755Z,12.90
2022-09-10T22:33:56.933Z,12.90
2022-09-10T22:36:31.014Z,13.00
2022-09-10T22:39:00.781Z,13.00
2022-09-10T22:41:29.526Z,12.90
2022-09-10T22:43:57.127Z,12.90
2022-09-10T22:46:24.445Z,13.00
2022-09-10T22:48:51.185Z,13.00
2022-09-10T22:51:20.130Z,13.10
2022-09-10T22:53:47.076Z,13.10
2022-09-10T22:56:15.829Z,13.10
2022-09-10T22:58:42.716Z,13.00
2022-09-10T23:01:14.996Z,13.00
2022-09-10T23:03:43.218Z,13.00
2022-09-10T23:06:15.681Z,13.10
2022-09-10T23:08:44.532Z,13.10
2022-09-10T23:11:21.858Z,13.10
2022-09-10T23:13:52.721Z,13.10
2022-09-10T23:16:28.856Z,13.10
2022-09-10T23:18:57.757Z,13.10
2022-09-10T23:21:25.875Z,13.10
2022-09-10T23:23:54.877Z,13.10
2022-09-10T23:26:22.527Z,13.10
2022-09-10T23:28:49.368Z,13.00
2022-09-10T23:31:24.709Z,13.00
2022-09-10T23:33:59.807Z,13.00
2022-09-10T23:36:28.467Z,13.00
2022-09-10T23:38:55.190Z,13.00
2022-09-10T23:41:21.954Z,13.00
2022-09-10T23:43:48.641Z,13.10
2022-09-10T23:46:15.565Z,13.20
2022-09-10T23:48:43.039Z,13.10
2022-09-10T23:51:13.655Z,13.20
2022-09-10T23:53:40.580Z,13.20
2022-09-10T23:56:07.405Z,13.20
2022-09-10T23:58:34.416Z,13.10
